Tiempo atmosférico en la estación meteorológica de Don Benito, Badajoz (273 m.)



Fecha
DESCASC
Temp. máxima en grados centígrados (hora)
DESCASC
Temp. mínima en grados centígrados (hora)
DESCASC
Temp. media en grados centígrados
DESCASC
Racha de viento máxima en m/sg (hora)
DESCASC
Velocidad máxima media en intervalos de 10 minutos(hora)
DESCASC
Precipitaciones diarias en mm
DESCASC
Precipitaciones de 00:00 a 06:00 en mm
DESCASC
Precipitaciones de 06:00 a 12:00 en mm
DESCASC
Precipitaciones de 12:00 a 18:00 en mm
DESCASC
Precipitaciones de 18:00 a 24:00 en mm
DESCASC
08-12-2019 11.8 (16:40) 3.4 (08:50) 7.6 3.89 (23:59) 2.22 (02:30) 1.6 0 0 0.6 1
07-12-2019 15.7 (16:10) 4.5 (09:00) 10.1 3.61 (13:20) 1.94 (21:50) 0 0 0 0 0
06-12-2019 16.9 (15:40) 6 (08:30) 11.4 6.11 (02:10) 3.33 (02:10) 0 0 0 0 0
05-12-2019 16.5 (14:30) 6.3 (00:00) 11.4 8.61 (15:30) 4.17 (14:30) 0 0 0 0 0
04-12-2019 15.3 (16:40) 7.4 (00:00) 11.4 5.56 (03:30) 2.5 (00:10) 0.6 0 0 0 0.6
03-12-2019 15.7 (14:50) 7.7 (00:00) 11.7 9.72 (11:30) 4.44 (12:30) 0 0 0 0 0
02-12-2019 14.2 (14:40) 8.7 (00:00) 11.4 11.94 (15:50) 5.83 (11:30) 0 0 0 0 0
01-12-2019 15.3 (15:50) 8.6 (00:00) 12 11.11 (11:10) 5.28 (11:10) 8.6 0.2 1.4 5 2
30-11-2019 17.3 (15:20) 11.7 (00:00) 14.5 10 (15:00) 5.28 (15:00) 2.6 0 0 0 2.6
29-11-2019 18.2 (15:00) 12.8 (00:00) 15.5 5.28 (16:00) 2.5 (16:10) 0 0 0 0 0
28-11-2019 17.2 (14:10) 9.4 (00:00) 13.3 7.5 (14:30) 3.61 (14:30) 0 0 0 0 0
27-11-2019 17 (14:30) 10.4 (00:00) 13.7 9.17 (04:00) 4.17 (14:00) 1.2 1 0.2 0 0
26-11-2019 19.2 (15:40) 12.1 (00:00) 15.7 10.56 (13:50) 5.28 (14:30) 4.6 0 0.6 2 2
25-11-2019 18.6 (13:40) 12.2 (00:00) 15.4 8.61 (13:00) 4.72 (02:40) 5 2 3 0 0
24-11-2019 14.7 (15:00) 6.3 (00:00) 10.5 8.61 (23:59) 3.89 (23:59) 0 0 0 0 0
23-11-2019 15.6 (14:50) 7.8 (00:00) 11.7 12.78 (00:10) 6.39 (00:30) 1.8 1.8 0 0 0
22-11-2019 16.8 (16:40) 10.5 (00:00) 13.6 17.22 (13:00) 9.17 (12:20) 25.8 0 11.4 13 1.4
21-11-2019 14.3 (15:30) 7.7 (00:00) 11 5.28 (09:40) 1.94 (03:40) 2.2 0.2 1.6 0.4 0
20-11-2019 11.2 (17:10) 4.8 (00:00) 8 6.39 (10:40) 3.06 (10:40) 6.4 0 4.8 1.4 0.2
19-11-2019 11.9 (16:20) 3.4 (00:00) 7.6 3.06 (05:50) 1.67 (05:20) 0 0 0 0 0
18-11-2019 15.6 (16:20) 4.8 (00:00) 10.2 6.11 (00:40) 3.33 (10:40) 0 0 0 0 0
17-11-2019 13.4 (20:30) 4.9 (00:00) 9.1 11.67 (21:10) 5.28 (20:10) 9.2 0 3.2 3 3
16-11-2019 14.3 (14:50) 1.3 (00:00) 7.8 7.22 (15:40) 2.78 (16:00) 0 0 0 0 0
15-11-2019 13.2 (16:00) 3.6 (00:00) 8.4 9.72 (13:30) 4.44 (17:20) 0 0 0 0 0
14-11-2019 13.7 (15:00) 7.6 (00:00) 10.6 13.61 (13:00) 5.56 (06:40) 3.6 0 3.6 0 0
13-11-2019 21.5 (15:40) 11 (00:00) 16.3 11.67 (16:30) 5.56 (17:00) 0.2 0 0.2 0 0
12-11-2019 17.7 (15:40) 5.8 (00:00) 11.8 9.72 (23:59) 5 (23:59) 0 0 0 0 0
11-11-2019 17.2 (17:10) 10.1 (03:00) 13.7 7.5 (15:10) 3.33 (13:50) 0 0 0 0 0

Gráficas

Temp. máximas Temp. mínimas Temp. medias Precipitaciones Rachas de viento máximas Velocidades máximas media en intervalos de 10 minutos

Datos horarios

Fecha y hora oficial Temperatura (ºC) Velocidad del viento (km/h) Dirección del viento Racha (km/h) Dirección de racha Precipitación (mm) Presión (hPa) Tendencia (hPa) Humedad (%)
2019-12-10 23:00:00 6.5 8 Sudeste 9 Sudeste 0 994.2 -0.2 95
2019-12-10 22:00:00 6.8 3 Sudoeste 7 Sudoeste 0 994.7 0.3 94
2019-12-10 21:00:00 7.4 2 Sur 5 Sur 0 994.6 0 93
2019-12-10 20:00:00 7.9 3 Sur 5 Oeste 0 994.4 -0.6 91
2019-12-10 19:00:00 8.7 3 Oeste 6 Noroeste 0 994.4 -0.7 88
2019-12-10 18:00:00 10 3 Noroeste 8 Norte 0 994.6 -0.8 83
2019-12-10 17:00:00 10.7 4 Noroeste 8 Noroeste 0 995 -1.3 79
2019-12-10 16:00:00 10.8 4 Noroeste 9 Noroeste 0 995.1 -2 78
2019-12-10 15:00:00 10.8 3 Nordeste 9 Norte 0 995.4 -2.5 76
2019-12-10 14:00:00 10.1 0 Calma 9 Sudeste 0 996.3 -1.7 77
2019-12-10 13:00:00 8.8 6 Este 17 Nordeste 0 997.1 -0.8 85
2019-12-10 12:00:00 8 5 Nordeste 13 Este 0 997.9 0.5 91
2019-12-10 11:00:00 7.6 9 Este 17 Nordeste 0 998 0.7 93
2019-12-10 10:00:00 8 5 Este 16 Nordeste 0 997.9 1.1 94
2019-12-10 09:00:00 8.3 8 Nordeste 15 Nordeste 0 997.4 0.3 93
2019-12-10 08:00:00 8.2 4 Nordeste 11 Nordeste 0 997.3 -0.1 96
2019-12-10 07:00:00 7.7 4 Este 9 Este 0 996.8 -0.7 96
2019-12-10 06:00:00 7.5 0 Calma 4 Sudeste 0 997.1 -0.3 96
2019-12-10 05:00:00 7.3 0 Calma 6 Sur 0 997.4 -0.3 96
2019-12-10 04:00:00 6.7 2 Sudoeste 4 Noroeste 0 997.5 -0.3 96
2019-12-10 03:00:00 6.1 0 Calma 2 Nordeste 0 997.4 -0.5 95
2019-12-10 02:00:00 6.9 0 Calma 6 Sudeste 0 997.7 -0.4 95
2019-12-10 01:00:00 7.3 0 Calma 5 Sudeste 0 997.8 -0.2 93
2019-12-10 00:00:00 7.9 3 Sudeste 6 Sur 0 997.9 0.3 93
2019-12-09 23:00:00 8.6 0 Calma 3 Noroeste 0 998.1 0.8 92
2019-12-09 22:00:00 9.2 2 Noroeste 6 Sudeste 0 998 0.7 89
2019-12-09 21:00:00 9.9 0 Calma 3 Este 0 997.6 0.6 87
2019-12-09 20:00:00 10.7 3 Nordeste 4 Nordeste 0 997.3 0.1 84
2019-12-09 19:00:00 11.6 2 Nordeste 8 Nordeste 0 997.3 0.2 80
2019-12-09 18:00:00 12.5 4 Este 9 Nordeste 0 997 -0.3 75
2019-12-09 17:00:00 13.5 4 Nordeste 9 Este 0 997.2 -0.3 70
2019-12-09 16:00:00 13.9 5 Nordeste 10 Norte 0 997.1 -1 70
2019-12-09 15:00:00 14.9 2 Sudeste 10 Norte 0 997.3 -1.3 63
2019-12-09 14:00:00 13.4 3 Sudeste 10 Noroeste 0 997.5 -1 73
2019-12-09 13:00:00 13.3 0 Calma 7 Noroeste 0 998.1 0.4 76
2019-12-09 12:00:00 12.5 3 Oeste 8 Noroeste 0 998.6 1.7 88
2019-12-09 11:00:00 11.8 4 Noroeste 9 Oeste 0 998.5 1.9 95
2019-12-09 10:00:00 11.5 3 Noroeste 8 Oeste 0 997.7 1.8 97
2019-12-09 09:00:00 11.3 2 Noroeste 7 Noroeste 0 996.9 1.2 97
2019-12-09 08:00:00 11.6 2 Oeste 6 Sudoeste 0 996.6 1.2 97
2019-12-09 07:00:00 11.8 4 Sur 9 Sur 0 995.9 0.3 97
2019-12-09 06:00:00 11.8 5 Sur 9 Sur 0 995.7 0.4 97
2019-12-09 05:00:00 11.8 0 Calma 8 Oeste 0 995.4 0.4 97
2019-12-09 04:00:00 11.8 3 Noroeste 13 Noroeste 0 995.6 0.1 97
2019-12-09 03:00:00 11.7 3 Oeste 13 Sudoeste 0 995.3 -0.1 97
2019-12-09 02:00:00 11.6 7 Sudoeste 14 Sudoeste 0 995 -0.1 97
2019-12-09 01:00:00 11.4 6 Oeste 15 Oeste 0 995.5 0.4 97
2019-12-09 00:00:00 11.3 7 Sudoeste 14 Sudoeste 0 995.4 0.1 97
2019-12-08 23:00:00 11.1 6 Sudoeste 12 Sudoeste 0 995.1 0.3 96
2019-12-08 22:00:00 10.7 6 Sudoeste 10 Sudoeste 0 995.1 0.6 96
2019-12-08 21:00:00 10.8 3 Oeste 7 Oeste 0 995.3 1.2 95
2019-12-08 20:00:00 10.8 2 Oeste 9 Oeste 0.2 994.8 0.6 95
2019-12-08 19:00:00 11 5 Oeste 10 Oeste 0.8 994.5 0.5 93
2019-12-08 18:00:00 11.3 5 Sudoeste 10 Sudoeste 0.6 994.1 0.2 89
2019-12-08 17:00:00 11.8 4 Oeste 9 Oeste 0 994.2 0 80
2019-12-08 16:00:00 11.1 3 Sur 6 Noroeste 0 994 -0.6 82
2019-12-08 15:00:00 10.4 3 Noroeste 13 Norte 0 993.9 -1.2 85
2019-12-08 14:00:00 10.1 4 Norte 9 Nordeste 0 994.2 -1.2 85
2019-12-08 13:00:00 8.3 5 Norte 9 Noroeste 0 994.6 -0.5 93
2019-12-08 12:00:00 6.9 2 Nordeste 8 Norte 0 995.1 0.7 97
2019-12-08 11:00:00 5.8 4 Nordeste 8 Nordeste 0 995.4 1.3 96
2019-12-08 10:00:00 4.2 3 Norte 7 Norte 0 995.1 1.5 96
2019-12-08 09:00:00 3.6 0 Calma 3 Norte 0 994.4 1.1 96
2019-12-08 08:00:00 3.7 4 Sur 8 Sudeste 0 994.1 0.6 95
2019-12-08 07:00:00 4.1 0 Calma 6 Oeste 0 993.6 0.1 95
2019-12-08 06:00:00 4.4 0 Calma 7 Sudeste 0 993.3 -0.1 95
2019-12-08 05:00:00 5.3 2 Sudeste 5 Norte 0 993.5 0 95
2019-12-08 04:00:00 5.4 0 Calma 9 Noroeste 0 993.5 -0.6 94
2019-12-08 03:00:00 6.2 6 Sudeste 11 Sudeste 0 993.4 -0.4 92
2019-12-08 02:00:00 6.5 5 Sudeste 7 Sudeste 0 993.5 -0.2 92
2019-12-08 01:00:00 7 3 Noroeste 5 Sudeste 0 994.1 0.9 92
2019-12-08 00:00:00 7.6 2 Nordeste 6 Noroeste 0 993.8 1 91
2019-12-07 23:00:00 8.5 2 Sudeste 9 Sudeste 0 993.7 1.2 87
2019-12-07 22:00:00 9.2 5 Sudeste 10 Sudeste 0 993.2 1.2 84
2019-12-07 21:00:00 9.7 3 Sudeste 7 Sudeste 0 992.8 1.4 82
2019-12-07 20:00:00 10.4 4 Sudeste 8 Oeste 0 992.5 1.3 80
2019-12-07 19:00:00 11.9 2 Sur 5 Sur 0 992 1 73
2019-12-07 18:00:00 14 3 Sur 8 Sudeste 0 991.4 0.3 64
2019-12-07 17:00:00 15.4 4 Sudeste 10 Este 0 991.2 -0.4 58
2019-12-07 16:00:00 15.6 2 Este 10 Norte 0 991 -1.5 57
2019-12-07 15:00:00 14.7 5 Norte 11 Norte 0 991.1 -1.8 64
2019-12-07 14:00:00 14.5 4 Este 13 Nordeste 0 991.6 -0.8 63
2019-12-07 13:00:00 12.1 5 Norte 12 Nordeste 0 992.5 0.2 72
2019-12-07 12:00:00 10.9 6 Norte 12 Norte 0 992.9 1.1 78
2019-12-07 11:00:00 10.6 4 Este 11 Este 0 992.4 1.1 79
2019-12-07 10:00:00 7.9 3 Este 6 Este 0 992.3 1.5 89
2019-12-07 09:00:00 4.6 2 Noroeste 10 Noroeste 0 991.8 1.3 94
2019-12-07 08:00:00 4.9 3 Este 11 Noroeste 0 991.3 0.7 94
2019-12-07 07:00:00 5.6 3 Sudeste 8 Sudeste 0 990.8 0.1 93
2019-12-07 06:00:00 5.5 2 Sur 7 Nordeste 0 990.5 0.4 92
2019-12-07 05:00:00 5.8 2 Este 4 Noroeste 0 990.6 0.2 93
2019-12-07 04:00:00 6.5 3 Norte 8 Sudeste 0 990.7 -0.1 92
2019-12-07 03:00:00 6.4 3 Sudeste 7 Sudeste 0 990.1 -0.7 91
2019-12-07 02:00:00 6.8 5 Sudoeste 8 Sudoeste 0 990.4 0.1 89
2019-12-07 01:00:00 7.5 4 Sudeste 7 Sudeste 0 990.8 0.8 90
2019-12-07 00:00:00 7.9 3 Oeste 6 Sudoeste 0 990.8 1.4 88
2019-12-06 23:00:00 9 2 Norte 5 Norte 0 990.3 1.4 86
2019-12-06 22:00:00 9.2 2 Sur 6 Sur 0 990 1.5 82
2019-12-06 21:00:00 9.9 3 Sudeste 7 Oeste 0 989.4 1.4 81
2019-12-06 20:00:00 11.1 0 Calma 3 Sur 0 988.9 0.8 74
2019-12-06 19:00:00 12.7 2 Nordeste 5 Norte 0 988.5 0.4 68
2019-12-06 18:00:00 14.4 3 Nordeste 11 Este 0 988 -0.2 58
2019-12-06 17:00:00 16.1 5 Nordeste 14 Norte 0 988.1 -0.8 51
2019-12-06 16:00:00 16.5 5 Nordeste 18 Nordeste 0 988.1 -1.5 53
2019-12-06 15:00:00 16.3 6 Nordeste 14 Nordeste 0 988.2 -1.8 53
2019-12-06 14:00:00 15.9 7 Nordeste 20 Nordeste 0 988.9 -1.3 56
2019-12-06 13:00:00 14.7 8 Nordeste 19 Sudeste 0 989.6 -0.3 63
2019-12-06 12:00:00 12.8 5 Nordeste 12 Nordeste 0 990 1.2 70
2019-12-06 11:00:00 10.5 4 Norte 8 Nordeste 0 990.2 1.4 79
2019-12-06 10:00:00 8.8 4 Norte 14 Este 0 989.9 1.6 84
2019-12-06 09:00:00 7.6 9 Este 14 Este 0 988.8 0.9 93
2019-12-06 08:00:00 6.4 0 Calma 10 Este 0 988.8 1.5 92
2019-12-06 07:00:00 6.6 3 Sudeste 10 Sudeste 0 988.3 0.7 91
2019-12-06 06:00:00 6.9 2 Sudeste 6 Nordeste 0 987.9 0.9 91
2019-12-06 05:00:00 6.9 2 Nordeste 7 Nordeste 0 987.3 0.5 89
2019-12-06 04:00:00 7.5 3 Norte 9 Nordeste 0 987.6 0.4 89
2019-12-06 03:00:00 7.9 3 Norte 22 Este 0 987 -0.3 86
2019-12-06 02:00:00 9.1 8 Este 18 Este 0 986.8 -0.3 85
2019-12-06 01:00:00 8.8 8 Sudeste 17 Sudeste 0 987.2 0.6 83
2019-12-06 00:00:00 8.8 4 Nordeste 10 Nordeste 0 987.3 1.4 84
2019-12-05 23:00:00 10.8 7 Nordeste 16 Nordeste 0 987.1 1.8 75
2019-12-05 22:00:00 11.1 10 Nordeste 18 Nordeste 0 986.6 1.9 73
2019-12-05 21:00:00 11.5 5 Nordeste 19 Nordeste 0 985.9 1.7 71
2019-12-05 20:00:00 12.4 10 Nordeste 24 Nordeste 0 985.3 1.4 65
2019-12-05 19:00:00 13.4 12 Nordeste 23 Este 0 984.7 1.1 58
2019-12-05 18:00:00 13.9 7 Nordeste 29 Nordeste 0 984.2 0.9 57
2019-12-05 17:00:00 15.3 12 Nordeste 27 Nordeste 0 983.9 0 51
2019-12-05 16:00:00 15.7 13 Nordeste 31 Nordeste 0 983.6 -0.8 48
2019-12-05 15:00:00 16.3 13 Nordeste 30 Nordeste 0 983.3 -1.3 46
2019-12-05 14:00:00 15.9 12 Nordeste 25 Nordeste 0 983.9 -0.5 48
2019-12-05 13:00:00 15.1 6 Este 20 Este 0 984.4 0.6 59
2019-12-05 12:00:00 14 7 Este 18 Nordeste 0 984.6 1.7 63
2019-12-05 11:00:00 11.9 5 Este 11 Nordeste 0 984.4 2.1 72
2019-12-05 10:00:00 9.7 2 Nordeste 6 Sudeste 0 983.8 2.1 88
2019-12-05 09:00:00 6.8 3 Sudeste 6 Sur 0 982.9 1.9 95
2019-12-05 08:00:00 6.6 2 Sur 8 Sudoeste 0 982.3 1.7 94
2019-12-05 07:00:00 7.1 0 Calma 7 Sur 0 981.7 1.1 95
2019-12-05 06:00:00 7.6 0 Calma 6 Sur 0 981 0.9 94
2019-12-05 05:00:00 8.1 3 Nordeste 6 Nordeste 0 980.6 0.4 95
2019-12-05 04:00:00 7.7 2 Sudeste 5 Norte 0 980.6 0.5 94
2019-12-05 03:00:00 8.2 0 Calma 5 Noroeste 0 980.1 0.7 94
2019-12-05 02:00:00 8.9 2 Sudoeste 6 Oeste 0 980.2 1.2 94
2019-12-05 01:00:00 9.3 2 Oeste 5 Sudoeste 0 980.1 1.4 93
2019-12-05 00:00:00 10.1 4 Oeste 6 Oeste 0 979.4 0.8 92
2019-12-04 23:00:00 10.7 2 Norte 6 Norte 0 979 0.9 90
2019-12-04 22:00:00 11 3 Norte 8 Norte 0 978.7 1.1 89
2019-12-04 21:00:00 11.1 3 Norte 9 Norte 0 978.6 1.3 88
2019-12-04 20:00:00 11.4 2 Norte 8 Nordeste 0.2 978.1 1.4 86
2019-12-04 19:00:00 11.8 4 Norte 10 Norte 0.4 977.6 1 80
2019-12-04 18:00:00 13.4 0 Calma 5 Noroeste 0 977.3 0.6 60
2019-12-04 17:00:00 14.3 2 Noroeste 10 Oeste 0 976.7 -0.4 52
2019-12-04 16:00:00 15 2 Nordeste 12 Noroeste 0 976.6 -1.2 51
2019-12-04 15:00:00 13.9 4 Noroeste 12 Noroeste 0 976.7 -1.8 56
2019-12-04 14:00:00 13.8 2 Sudeste 13 Nordeste 0 977.1 -1.3 58
2019-12-04 13:00:00 11.9 7 Nordeste 14 Nordeste 0 977.8 -0.5 63
2019-12-04 12:00:00 11.8 3 Nordeste 15 Nordeste 0 978.5 0.5 66
2019-12-04 11:00:00 10.3 6 Norte 13 Norte 0 978.4 0.4 76
2019-12-04 10:00:00 8.5 3 Noroeste 8 Noroeste 0 978.3 0.2 85
2019-12-04 09:00:00 7.6 0 Calma 8 Este 0 978 -0.1 84
2019-12-04 08:00:00 8.1 4 Este 9 Este 0 978 -0.6 84
2019-12-04 07:00:00 8.4 4 Nordeste 12 Nordeste 0 978.1 -0.9 81
2019-12-04 06:00:00 9 6 Nordeste 16 Este 0 978.1 -1.4 78
2019-12-04 05:00:00 9.5 6 Este 14 Este 0 978.6 -1.3 70
2019-12-04 04:00:00 9.7 7 Este 20 Este 0 979 -1.4 69
2019-12-04 03:00:00 9.9 9 Este 18 Este 0 979.5 -1.3 71
2019-12-04 02:00:00 9.6 7 Nordeste 16 Nordeste 0 979.9 -0.5 75
2019-12-04 01:00:00 10.1 8 Este 17 Nordeste 0 980.4 -0.2 74
2019-12-04 00:00:00 10.2 7 Nordeste 16 Nordeste 0 980.8 0.4 76
2019-12-03 23:00:00 11 8 Este 18 Nordeste 0 980.4 0.1 72
2019-12-03 22:00:00 11.6 5 Nordeste 21 Nordeste 0 980.6 0.7 70
2019-12-03 21:00:00 12 9 Nordeste 17 Nordeste 0 980.4 0.6 67
2019-12-03 20:00:00 12.3 8 Nordeste 17 Nordeste 0 980.3 0.9 63
2019-12-03 19:00:00 12 8 Este 22 Este 0 979.9 0.5 63
2019-12-03 18:00:00 13.4 11 Este 25 Este 0 979.8 0.2 59
2019-12-03 17:00:00 14.8 11 Este 23 Este 0 979.4 -0.9 53
2019-12-03 16:00:00 15.1 9 Este 27 Nordeste 0 979.4 -1.6 52
2019-12-03 15:00:00 15.1 11 Este 26 Nordeste 0 979.6 -2.4 52
2019-12-03 14:00:00 14.8 11 Nordeste 26 Nordeste 0 980.3 -1.7 52
2019-12-03 13:00:00 14.3 10 Nordeste 34 Nordeste 0 981 -1.1 53
2019-12-03 12:00:00 13.2 13 Nordeste 35 Este 0 982 0 56
2019-12-03 11:00:00 12.1 12 Nordeste 25 Nordeste 0 982 0.2 60
2019-12-03 10:00:00 10.3 6 Nordeste 21 Nordeste 0 982.1 0.6 66
2019-12-03 09:00:00 9 10 Nordeste 21 Nordeste 0 982 0.5 68
2019-12-03 08:00:00 8.6 8 Nordeste 22 Nordeste 0 981.8 0.2 70
2019-12-03 07:00:00 8.7 6 Nordeste 17 Nordeste 0 981.5 -0.6 71
2019-12-03 06:00:00 8.1 5 Nordeste 13 Este 0 981.5 -1 74
2019-12-03 05:00:00 8.2 4 Nordeste 16 Nordeste 0 981.6 -1.2 74
2019-12-03 04:00:00 8.3 4 Nordeste 21 Este 0 982.1 -0.8 74
2019-12-03 03:00:00 9.4 8 Nordeste 21 Nordeste 0 982.5 -0.5 68
2019-12-03 02:00:00 9.3 5 Norte 15 Norte 0 982.8 0 71
2019-12-03 01:00:00 8.9 4 Nordeste 12 Nordeste 0 982.9 0.3 75
2019-12-03 00:00:00 10.4 5 Nordeste 21 Nordeste 0 983 0.7 68
2019-12-02 23:00:00 10.9 9 Nordeste 23 Nordeste 0 982.8 0.9 66
2019-12-02 22:00:00 11.2 13 Nordeste 27 Este 0 982.6 1.1 65
2019-12-02 21:00:00 11.6 15 Nordeste 30 Este 0 982.3 1.4 63
2019-12-02 20:00:00 11.8 13 Nordeste 28 Nordeste 0 981.9 1.3 64
2019-12-02 19:00:00 12.2 13 Nordeste 24 Nordeste 0 981.5 1.4 63
2019-12-02 18:00:00 12.3 12 Nordeste 38 Nordeste 0 980.9 0.9 61
2019-12-02 17:00:00 12.7 15 Nordeste 43 Nordeste 0 980.6 0.2 59
2019-12-02 16:00:00 13.4 15 Nordeste 43 Nordeste 0 980.1 -0.7 55
2019-12-02 15:00:00 14.2 18 Nordeste 38 Nordeste 0 980 -0.9 54
2019-12-02 14:00:00 13.4 16 Nordeste 42 Nordeste 0 980.4 -0.2 60
2019-12-02 13:00:00 12.6 15 Nordeste 39 Nordeste 0 980.8 0.6 65
2019-12-02 12:00:00 13.1 19 Este 42 Nordeste 0 980.9 1.5 62
2019-12-02 11:00:00 10.8 18 Nordeste 36 Nordeste 0 980.6 1.8 71
2019-12-02 10:00:00 10.4 14 Nordeste 33 Este 0 980.2 1.8 72
2019-12-02 09:00:00 10.2 13 Nordeste 28 Nordeste 0 979.4 1.4 77
2019-12-02 08:00:00 9.7 8 Nordeste 24 Este 0 978.8 0.8 83
2019-12-02 07:00:00 10 10 Nordeste 24 Nordeste 0 978.4 0.5 83
2019-12-02 06:00:00 9.6 8 Nordeste 21 Nordeste 0 978 0.1 85
2019-12-02 05:00:00 9.2 9 Nordeste 20 Nordeste 0 978 0.2 88
2019-12-02 04:00:00 8.8 6 Nordeste 14 Nordeste 0 977.9 -0.1 90
2019-12-02 03:00:00 8.9 5 Nordeste 18 Nordeste 0 977.9 -0.3 91
2019-12-02 02:00:00 9.4 7 Nordeste 16 Nordeste 0 977.8 -0.3 94
2019-12-02 01:00:00 9.5 4 Norte 10 Norte 0 978 0.2 96
2019-12-02 00:00:00 9.6 4 Norte 8 Norte 0 978.2 0.5 95
2019-12-01 23:00:00 9.7 0 Calma 6 Sudeste 0 978.1 0.4 93
2019-12-01 22:00:00 9.8 5 Sudeste 10 Este 0 977.8 0.4 90
2019-12-01 21:00:00 9.8 4 Este 8 Este 0.2 977.7 0.4 90
2019-12-01 20:00:00 9.6 3 Este 10 Norte 1 977.7 0.2 92
2019-12-01 19:00:00 9.8 3 Noroeste 9 Oeste 0.8 977.4 0.6 92
2019-12-01 18:00:00 10 4 Noroeste 25 Noroeste 1.6 977.3 0 89
2019-12-01 17:00:00 10.2 17 Noroeste 37 Noroeste 3.4 977.5 -0.5 88
2019-12-01 16:00:00 14.5 8 Oeste 23 Oeste 0 976.8 -2.1 62
2019-12-01 15:00:00 15 12 Sudoeste 28 Oeste 0 977.3 -2.6 66
2019-12-01 14:00:00 13.7 12 Sudoeste 29 Oeste 0 978 -2.1 78
2019-12-01 13:00:00 12.8 16 Sudoeste 33 Sudoeste 0 978.9 -1.4 84
2019-12-01 12:00:00 12.1 17 Sudoeste 40 Sudoeste 0.6 979.9 -0.5 89
2019-12-01 11:00:00 12.3 18 Sudoeste 33 Sudoeste 0.2 980.1 -0.7 83
2019-12-01 10:00:00 11.6 15 Sudoeste 28 Sudoeste 0 980.3 -0.7 87
2019-12-01 09:00:00 10.6 14 Sur 24 Sudoeste 0 980.4 -1.1 92
2019-12-01 08:00:00 10.2 13 Sudoeste 23 Sudoeste 0.6 980.8 -1.5 94
2019-12-01 07:00:00 10.1 11 Sudoeste 21 Sudoeste 0 981 -2 91
2019-12-01 06:00:00 9.2 0 Calma 12 Sur 0 981.5 -2.1 95
2019-12-01 05:00:00 8.7 2 Sur 5 Sur 0 982.3 -1.9 96
2019-12-01 04:00:00 8.9 0 Calma 10 Sudoeste 0.2 983 -1.8 95
2019-12-01 03:00:00 9.7 6 Sudoeste 12 Oeste 0 983.6 -1.4 94
2019-12-01 02:00:00 10.9 8 Oeste 23 Sudoeste 0 984.2 -1 94
2019-12-01 01:00:00 11.4 12 Oeste 24 Oeste 0 984.8 -0.8 94
2019-12-01 00:00:00 12 8 Oeste 20 Sudoeste 0 985 -0.5 93
2019-11-30 23:00:00 12.5 10 Sudoeste 24 Sudoeste 0 985.2 0.1 93
2019-11-30 22:00:00 12.6 7 Oeste 15 Oeste 0 985.6 0.4 93
2019-11-30 21:00:00 12.4 7 Oeste 35 Noroeste 2.4 985.5 0 93
2019-11-30 20:00:00 14.2 12 Sudoeste 32 Sudoeste 0.2 985.1 -0.4 88
2019-11-30 19:00:00 15.5 14 Sudoeste 28 Oeste 0 985.2 -0.9 75
2019-11-30 18:00:00 15.9 13 Sudoeste 27 Sudoeste 0 985.5 -1 70
2019-11-30 17:00:00 16.5 13 Sudoeste 30 Sudoeste 0 985.5 -2.3 67
2019-11-30 16:00:00 17.2 14 Sudoeste 33 Sudoeste 0 986.1 -2.6 63
2019-11-30 15:00:00 17.1 19 Sudoeste 36 Sudoeste 0 986.5 -3.1 63
2019-11-30 14:00:00 16.9 15 Sudoeste 29 Sudoeste 0 987.8 -2 63
2019-11-30 13:00:00 16.4 17 Sudoeste 28 Sudoeste 0 988.7 -1 63
2019-11-30 12:00:00 15.9 10 Sudoeste 19 Sudoeste 0 989.6 0.1 75
2019-11-30 11:00:00 14.5 8 Sudoeste 12 Sudoeste 0 989.8 0.5 83
2019-11-30 10:00:00 13.3 4 Sur 8 Sur 0 989.7 0.5 92
2019-11-30 09:00:00 12.5 3 Sudoeste 13 Noroeste 0 989.5 0.1 94
2019-11-30 08:00:00 11.8 4 Sudoeste 11 Sudoeste 0 989.3 -0.6 93
2019-11-30 07:00:00 12 6 Sudoeste 13 Sur 0 989.2 -0.3 91
2019-11-30 06:00:00 12.8 6 Sudoeste 12 Sudoeste 0 989.4 -0.2 90
2019-11-30 05:00:00 12.9 2 Sudoeste 8 Oeste 0 989.9 0 90
2019-11-30 04:00:00 13.3 4 Sudoeste 9 Sudoeste 0 989.5 -0.9 87
2019-11-30 03:00:00 13.7 7 Sudoeste 13 Sudoeste 0 989.6 -0.9 84
2019-11-30 02:00:00 13.7 7 Sur 12 Sudoeste 0 989.9 -0.2 83
2019-11-30 01:00:00 13.5 5 Sudoeste 9 Sudoeste 0 990.4 0.2 85
2019-11-30 00:00:00 12.9 5 Sudoeste 12 Sudoeste 0 990.5 0.6 86
2019-11-29 23:00:00 13.2 5 Sudoeste 10 Sudoeste 0 990.1 0.5 85
2019-11-29 22:00:00 14 4 Sudoeste 6 Sudoeste 0 990.2 0.4 84
2019-11-29 21:00:00 15 4 Sur 9 Sur 0 989.9 0.5 81
2019-11-29 20:00:00 15.8 5 Sur 7 Sur 0 989.6 0.3 78
2019-11-29 19:00:00 15.9 0 Calma 5 Sudoeste 0 989.8 0.5 80
2019-11-29 18:00:00 16.8 2 Sudoeste 11 Sudoeste 0 989.4 0 75
2019-11-29 17:00:00 17.3 8 Oeste 18 Oeste 0 989.3 -0.4 71
2019-11-29 16:00:00 17.8 8 Oeste 19 Sudoeste 0 989.3 -1.1 70
2019-11-29 15:00:00 18.2 5 Oeste 17 Oeste 0 989.4 -1.4 69
2019-11-29 14:00:00 17.9 6 Oeste 17 Oeste 0 989.7 -0.7 66
2019-11-29 13:00:00 17.2 6 Oeste 18 Oeste 0 990.4 0.6 71
2019-11-29 12:00:00 16.3 7 Oeste 13 Oeste 0 990.8 1.2 75
2019-11-29 11:00:00 15.7 3 Oeste 12 Sudoeste 0 990.4 1.2 77
2019-11-29 10:00:00 14.2 5 Sur 9 Sudoeste 0 989.8 1.2 84
2019-11-29 09:00:00 13.6 2 Oeste 9 Sudoeste 0 989.6 1.2 86
2019-11-29 08:00:00 13.6 4 Oeste 14 Sudoeste 0 989.2 0.9 85
2019-11-29 07:00:00 13.6 7 Sur 13 Sur 0 988.6 0.5 84
2019-11-29 06:00:00 13.4 0 Calma 9 Sudoeste 0 988.4 0.5 86
2019-11-29 05:00:00 13.5 6 Sudoeste 13 Oeste 0 988.3 0.6 84
2019-11-29 04:00:00 13.7 8 Sudoeste 13 Sudoeste 0 988.1 0.3 83
2019-11-29 03:00:00 13.8 6 Sudoeste 12 Sudoeste 0 987.9 0.1 83
2019-11-29 02:00:00 13.8 3 Sur 12 Sudoeste 0 987.7 0.1 86
2019-11-29 01:00:00 13.9 4 Sudoeste 14 Sur 0 987.8 0.3 84
2019-11-29 00:00:00 13.8 6 Sudoeste 14 Sur 0 987.8 0.7 83
2019-11-28 23:00:00 13.8 8 Sur 15 Sudoeste 0 987.6 1.1 82
2019-11-28 22:00:00 14.1 5 Sudoeste 10 Sudoeste 0 987.5 1.3 80
2019-11-28 21:00:00 14.4 4 Sur 10 Sur 0 987.1 1 78
2019-11-28 20:00:00 14.4 4 Sur 9 Sudoeste 0 986.5 0.4 81
2019-11-28 19:00:00 14.9 5 Sudoeste 13 Oeste 0 986.2 0.4 77
2019-11-28 18:00:00 15.7 8 Oeste 16 Sudoeste 0 986.1 0 71
2019-11-28 17:00:00 16.4 7 Oeste 18 Sudoeste 0 986.1 -0.2 67
2019-11-28 16:00:00 16.7 9 Oeste 21 Oeste 0 985.8 -1.4 64
2019-11-28 15:00:00 16.9 10 Sudoeste 27 Sudoeste 0 986.1 -1.4 66
2019-11-28 14:00:00 17 9 Sudoeste 19 Sudoeste 0 986.3 -1.3 62
2019-11-28 13:00:00 16.3 8 Sudoeste 17 Sudoeste 0 987.2 0 67
2019-11-28 12:00:00 15.3 8 Sudoeste 17 Sudoeste 0 987.5 0.3 73
2019-11-28 11:00:00 14.2 9 Sur 16 Sur 0 987.6 0.9 78
2019-11-28 10:00:00 12.3 3 Sudeste 9 Sudeste 0 987.2 0.9 91
2019-11-28 09:00:00 11.4 0 Calma 4 Sudoeste 0 987.2 1.4 93
2019-11-28 08:00:00 11.2 2 Sudoeste 6 Sur 0 986.7 1 92
2019-11-28 07:00:00 11.1 2 Sudoeste 6 Noroeste 0 986.3 0.5 93
2019-11-28 06:00:00 11 3 Sur 9 Sur 0 985.8 0.4 93
2019-11-28 05:00:00 10.2 4 Sudoeste 6 Sudoeste 0 985.7 0.4 94
2019-11-28 04:00:00 9.7 2 Noroeste 7 Sudoeste 0 985.8 0.2 93
2019-11-28 03:00:00 10 5 Sudoeste 13 Sudoeste 0 985.4 -0.2 92
2019-11-28 02:00:00 10.2 8 Sudoeste 13 Sudoeste 0 985.3 0 91
2019-11-28 01:00:00 10.1 4 Sudoeste 12 Sudoeste 0 985.6 1 90
2019-11-28 00:00:00 10.6 5 Sudoeste 12 Sudoeste 0 985.6 1.3 89
2019-11-27 23:00:00 11.4 4 Sudoeste 12 Sudoeste 0 985.3 1.1 87
2019-11-27 22:00:00 11.9 6 Sudoeste 13 Sudoeste 0 984.6 1.1 84
2019-11-27 21:00:00 12.9 8 Sudoeste 13 Sudoeste 0 984.3 1.1 79
2019-11-27 20:00:00 13.5 5 Sudoeste 9 Sudoeste 0 984.2 1 78
2019-11-27 19:00:00 13.9 4 Sudoeste 10 Sudoeste 0 983.5 0.8 75
2019-11-27 18:00:00 14.8 6 Oeste 18 Oeste 0 983.2 0.2 69
2019-11-27 17:00:00 15.2 5 Oeste 19 Oeste 0 983.2 -0.2 67
2019-11-27 16:00:00 16 8 Oeste 19 Oeste 0 982.7 -1.3 64
2019-11-27 15:00:00 15.7 9 Oeste 28 Oeste 0 983 -1.6 63
2019-11-27 14:00:00 16.6 15 Oeste 28 Oeste 0 983.4 -0.8 54
2019-11-27 06:00:00 12 9 Oeste 19 Oeste 0 981.3 0.3 95
2019-11-27 05:00:00 12.6 10 Oeste 33 Oeste 0 981.3 0.5 94
2019-11-27 04:00:00 13 12 Oeste 33 Oeste 0 981.1 0 95
2019-11-27 03:00:00 13.3 14 Sudoeste 27 Oeste 0.8 981 -0.3 96
2019-11-27 02:00:00 13.7 13 Sudoeste 26 Sudoeste 0.2 980.8 -0.4 89
2019-11-27 01:00:00 13.7 11 Sudoeste 24 Oeste 0 981.1 0.2 88
2019-11-27 00:00:00 13.9 12 Sudoeste 25 Sudoeste 0 981.3 0.6 91
2019-11-26 23:00:00 14.5 11 Oeste 22 Sudoeste 0 981.2 1 93
2019-11-26 22:00:00 14.5 8 Sudoeste 22 Sudoeste 0 980.9 0.8 95
2019-11-26 21:00:00 15 12 Sudoeste 27 Sudoeste 1.8 980.7 0.7 95
2019-11-26 20:00:00 15.6 10 Sudoeste 22 Sudoeste 0 980.2 0.1 91
2019-11-26 19:00:00 15.3 4 Sur 12 Sur 0.2 980.1 -0.2 93
2019-11-26 18:00:00 15.6 6 Sudoeste 14 Sudoeste 1.8 980 -0.8 90
2019-11-26 17:00:00 17.1 8 Sudoeste 30 Sudoeste 0 980.1 -1.1 78
2019-11-26 16:00:00 18.6 16 Sudoeste 35 Sudoeste 0 980.3 -2.2 67
2019-11-26 15:00:00 18.5 18 Sudoeste 38 Sudoeste 0 980.8 -2.9 69
2019-11-26 14:00:00 18.4 16 Sudoeste 38 Sudoeste 0 981.2 -2.8 72
2019-11-26 13:00:00 18 19 Sudoeste 30 Sudoeste 0.2 982.5 -1.2 75
2019-11-26 12:00:00 16 5 Oeste 11 Oeste 0 983.7 -0.1 95
2019-11-26 11:00:00 15.3 3 Noroeste 5 Noroeste 0 984 0.3 94
2019-11-26 10:00:00 14.4 3 Sudoeste 11 Sudoeste 0 983.7 0 95
2019-11-26 09:00:00 13.3 0 Calma 4 Sudoeste 0.2 983.8 -0.1 96
2019-11-26 08:00:00 13.2 0 Calma 8 Sudeste 0.4 983.7 -0.5 94
2019-11-26 07:00:00 13.4 3 Sudeste 13 Sudoeste 0 983.7 -0.9 92
2019-11-26 06:00:00 13.1 0 Calma 7 Sudoeste 0 983.9 -1 93
2019-11-26 05:00:00 12.9 0 Calma 5 Sur 0 984.2 -1.1 94
2019-11-26 04:00:00 12.9 3 Sudoeste 9 Sur 0 984.6 -1.3 94
2019-11-26 03:00:00 12.1 3 Sur 10 Sudoeste 0 984.9 -0.8 94
2019-11-26 02:00:00 12.4 7 Sudoeste 14 Sudoeste 0 985.3 -0.3 93
2019-11-26 01:00:00 13.2 6 Sudoeste 14 Sudoeste 0 985.9 0.2 91
2019-11-26 00:00:00 13.5 5 Sudoeste 12 Sudoeste 0 985.7 0.3 90
2019-11-25 23:00:00 14.4 4 Sudoeste 10 Sudoeste 0 985.6 0.4 88
2019-11-25 22:00:00 14.7 5 Sudoeste 11 Sudoeste 0 985.7 0.8 87
2019-11-25 21:00:00 15 4 Oeste 12 Sudoeste 0 985.4 0.7 86
2019-11-25 20:00:00 14.9 5 Sudoeste 8 Sur 0 985.2 0.9 87
2019-11-25 19:00:00 15.4 4 Sudoeste 11 Oeste 0 984.9 0.5 83
2019-11-25 18:00:00 16.7 4 Oeste 19 Oeste 0 984.7 0.4 78
2019-11-25 17:00:00 17.6 9 Oeste 29 Oeste 0 984.3 0 73
2019-11-25 16:00:00 17.7 9 Oeste 25 Oeste 0 984.4 -0.1 73
2019-11-25 15:00:00 18.2 9 Oeste 26 Noroeste 0 984.3 -0.7 70
2019-11-25 14:00:00 18 9 Oeste 31 Oeste 0 984.3 -0.5 71
2019-11-25 13:00:00 17.4 11 Oeste 31 Oeste 0 984.5 0.1 79
2019-11-25 12:00:00 16.6 13 Oeste 28 Sudoeste 0.4 985 1.5 93
2019-11-25 11:00:00 15.6 10 Oeste 25 Sudoeste 0.2 984.8 1.6 97
2019-11-25 10:00:00 15.1 13 Oeste 28 Oeste 0 984.4 1.2 97
2019-11-25 09:00:00 14.3 10 Sudoeste 23 Oeste 0.4 983.5 0.5 97
2019-11-25 08:00:00 13.6 4 Sur 9 Sur 0.8 983.2 0.1 97
2019-11-25 07:00:00 13.5 0 Calma 9 Oeste 1.2 983.2 0.1 97
2019-11-25 06:00:00 13.5 8 Sudoeste 23 Sudoeste 1.6 983 -0.8 96
2019-11-25 05:00:00 13.5 11 Sudoeste 25 Sudoeste 0.2 983.1 -1.3 92
2019-11-25 04:00:00 12.7 12 Sudoeste 23 Sudoeste 0.2 983.1 -1.9 92
2019-11-25 03:00:00 12.6 14 Sudoeste 27 Sudoeste 0 983.8 -1.2 89
2019-11-25 02:00:00 12.3 13 Sudoeste 23 Sudoeste 0 984.4 -0.7 89
2019-11-25 01:00:00 12.4 10 Sudoeste 25 Sudoeste 0 985 -0.1 86
2019-11-25 00:00:00 12.9 14 Sudoeste 31 Sudoeste 0 985 -0.4 81
2019-11-24 23:00:00 12.8 10 Sur 19 Sudoeste 0 985.1 -0.3 79
2019-11-24 22:00:00 12.3 12 Sudoeste 19 Sudoeste 0 985.1 0.2 80
2019-11-24 21:00:00 12.4 4 Sudeste 13 Sudoeste 0 985.4 0.6 79
2019-11-24 20:00:00 12.7 4 Sudoeste 9 Sudoeste 0 985.4 0.4 78
2019-11-24 19:00:00 12.9 4 Sudoeste 9 Sudoeste 0 984.9 0.1 77
2019-11-24 18:00:00 13.6 5 Sudoeste 17 Oeste 0 984.8 -0.2 73
2019-11-24 17:00:00 14 6 Oeste 21 Noroeste 0 985 -0.5 68
2019-11-24 16:00:00 14.2 6 Oeste 20 Oeste 0 984.8 -1.4 66
2019-11-24 15:00:00 14.7 10 Oeste 22 Oeste 0 985 -1.6 64
2019-11-24 14:00:00 13.6 12 Oeste 26 Oeste 0 985.5 -1.1 71
2019-11-24 13:00:00 12.1 10 Oeste 27 Oeste 0 986.2 0.1 77
2019-11-24 12:00:00 10.9 13 Oeste 25 Oeste 0 986.6 1.3 89
2019-11-24 11:00:00 8.8 9 Oeste 22 Oeste 0 986.6 1.4 97
2019-11-24 10:00:00 7.9 8 Oeste 26 Oeste 0 986.1 1.6 97
2019-11-24 09:00:00 7.3 10 Oeste 22 Sudoeste 0 985.3 1.3 96
2019-11-24 08:00:00 7 10 Oeste 26 Oeste 0 985.2 1.4 96
2019-11-24 07:00:00 6.6 6 Oeste 15 Oeste 0 984.5 1.1 95
2019-11-24 06:00:00 6.5 8 Oeste 18 Sudoeste 0 984 0.7 94
2019-11-24 05:00:00 6.7 4 Sudoeste 13 Oeste 0 983.8 0.5 93
2019-11-24 04:00:00 6.8 7 Sudoeste 18 Oeste 0 983.4 -0.1 92
2019-11-24 03:00:00 7 8 Sudoeste 16 Sudoeste 0 983.3 -0.1 91
2019-11-24 02:00:00 7.4 8 Sudoeste 16 Sudoeste 0 983.3 0.5 89
2019-11-24 01:00:00 7.9 5 Sudoeste 22 Oeste 0 983.5 1.1 88
2019-11-24 00:00:00 7.9 6 Oeste 17 Sudoeste 0 983.4 1.5 88
2019-11-23 23:00:00 8.5 10 Sudoeste 21 Sudoeste 0 982.8 1.7 83
2019-11-23 22:00:00 9.1 7 Oeste 20 Oeste 0 982.4 2.3 80
2019-11-23 21:00:00 9.6 8 Oeste 18 Oeste 0 981.9 2.6 75
2019-11-23 20:00:00 10.3 8 Sudoeste 16 Sudoeste 0 981.1 2.9 70
2019-11-23 19:00:00 11.3 6 Oeste 19 Oeste 0 980.1 2.6 63
2019-11-23 18:00:00 13.2 7 Noroeste 24 Noroeste 0 979.3 2.2 54
2019-11-23 17:00:00 14.8 10 Oeste 33 Oeste 0 978.2 1 50
2019-11-23 16:00:00 15 10 Oeste 32 Noroeste 0 977.5 0.3 50
2019-11-23 15:00:00 15 14 Noroeste 32 Oeste 0 977.1 0 47
2019-11-23 14:00:00 15 12 Noroeste 40 Oeste 0 977.2 1 50
2019-11-23 13:00:00 14.3 13 Oeste 33 Oeste 0 977.2 2.3 59
2019-11-23 12:00:00 13.2 15 Oeste 34 Sudoeste 0 977.1 3.4 67
2019-11-23 11:00:00 11.6 14 Oeste 33 Oeste 0 976.2 3.7 76
2019-11-23 10:00:00 10.3 14 Oeste 32 Oeste 0 974.9 3.8 85
2019-11-23 09:00:00 8.9 13 Oeste 24 Oeste 0 973.7 3.4 90
2019-11-23 08:00:00 8.6 10 Oeste 25 Oeste 0 972.5 2.3 89
2019-11-23 07:00:00 9 13 Oeste 26 Oeste 0 971.1 2 87
2019-11-23 06:00:00 9.3 16 Sudoeste 30 Sudoeste 0 970.3 1.4 88
2019-11-23 05:00:00 9.9 12 Oeste 34 Oeste 0 970.2 2.2 83
2019-11-23 04:00:00 10.3 14 Oeste 40 Oeste 0.2 969.1 1.5 85
2019-11-23 03:00:00 10.5 12 Oeste 41 Oeste 0.8 968.9 2.1 90
2019-11-23 02:00:00 11.1 13 Oeste 44 Oeste 0.2 968 1.1 89
2019-11-23 01:00:00 11.2 18 Oeste 46 Oeste 0.6 967.6 0.7 92
2019-11-23 00:00:00 11.6 19 Oeste 47 Oeste 0.2 966.8 0.2 90
2019-11-22 23:00:00 12.3 15 Sudoeste 30 Sudoeste 0 966.9 0.8 80
2019-11-22 22:00:00 12 14 Oeste 37 Oeste 0.2 966.9 2.2 86
2019-11-22 21:00:00 12.5 17 Oeste 41 Oeste 0.4 966.6 2.8 88
2019-11-22 20:00:00 12.8 15 Oeste 53 Sudoeste 0.6 966.1 2.8 85
2019-11-22 19:00:00 14 17 Oeste 40 Oeste 0 964.7 1.9 76
2019-11-22 18:00:00 14.9 15 Oeste 35 Sudoeste 0 963.8 0.7 70
2019-11-22 17:00:00 16.4 15 Oeste 39 Oeste 0 963.3 0.4 69
2019-11-22 16:00:00 16.1 11 Oeste 40 Sudoeste 0 962.8 -1.3 89
2019-11-22 15:00:00 14.1 19 Sudoeste 41 Sudoeste 6.2 963.1 -2.6 95
2019-11-22 14:00:00 14.6 29 Sudoeste 50 Sudoeste 6.2 962.9 -4.4 91
2019-11-22 13:00:00 14.7 32 Sudoeste 62 Sudoeste 0.6 964.1 -4 86
2019-11-22 12:00:00 14.4 22 Sudoeste 42 Sudoeste 2.8 965.7 -3.4 91
2019-11-22 11:00:00 13 14 Sur 31 Sudoeste 6.4 967.3 -2.8 92
2019-11-22 10:00:00 12.9 12 Sur 24 Sur 1.8 968.1 -3 87
2019-11-22 09:00:00 13 11 Sudoeste 24 Sur 0 969.1 -2.8 82
2019-11-22 08:00:00 12.2 6 Sur 25 Sur 0.2 970.1 -2.4 83
2019-11-22 07:00:00 11.8 10 Sur 20 Sur 0.2 971.1 -2.8 86
2019-11-22 06:00:00 11.9 12 Sur 24 Sur 0 971.9 -2.3 85
2019-11-22 05:00:00 11.6 7 Sur 15 Sur 0 972.5 -1.9 90
2019-11-22 04:00:00 11 7 Sur 13 Sur 0 973.9 -1 91
2019-11-22 03:00:00 11.1 5 Sudoeste 11 Sudoeste 0 974.2 -1.1 89
2019-11-22 02:00:00 11.2 6 Sur 15 Sur 0 974.4 -1.1 89
2019-11-22 01:00:00 10.9 8 Sur 13 Sur 0 974.9 -1.1 91
2019-11-22 00:00:00 10.6 2 Sudoeste 9 Sur 0 975.3 -0.6 92
2019-11-21 23:00:00 10.4 4 Sudeste 8 Sudeste 0 975.5 -0.3 93
2019-11-21 22:00:00 10.3 3 Sudeste 7 Sudeste 0 976 0.2 92
2019-11-21 21:00:00 11 5 Sudeste 8 Sudeste 0 975.9 0.7 92
2019-11-21 20:00:00 11.5 2 Sur 6 Sudoeste 0 975.8 0.5 92
2019-11-21 19:00:00 11.8 3 Sudoeste 4 Sudoeste 0 975.8 0.3 91
2019-11-21 18:00:00 12.4 2 Sudoeste 7 Noroeste 0 975.2 -0.5 85
2019-11-21 17:00:00 13.7 2 Oeste 8 Oeste 0.4 975.3 -0.8 83
2019-11-21 16:00:00 14.1 6 Sudoeste 10 Oeste 0 975.5 -1.3 75
2019-11-21 15:00:00 13.9 4 Sudoeste 10 Sudoeste 0 975.7 -1.8 77
2019-11-21 14:00:00 13.3 6 Sudoeste 13 Oeste 0 976.1 -1.3 82
2019-11-21 13:00:00 12.9 6 Sudoeste 13 Sur 0 976.8 -0.3 83
2019-11-21 12:00:00 11.5 4 Sudoeste 9 Sur 0 977.5 0.9 95
2019-11-21 11:00:00 10.5 2 Noroeste 5 Nordeste 0.2 977.4 1.2 96
2019-11-21 10:00:00 9.7 2 Nordeste 19 Noroeste 0.8 977.1 0.9 96
2019-11-21 09:00:00 9.1 2 Norte 10 Sudoeste 0.6 976.6 0.3 95
2019-11-21 08:00:00 9.5 3 Sur 8 Sur 0 976.2 -0.3 96
2019-11-21 07:00:00 8.6 0 Calma 4 Sur 0 976.2 -0.8 96
2019-11-21 06:00:00 8.5 0 Calma 4 Nordeste 0 976.3 -0.7 95
2019-11-21 05:00:00 8.7 2 Nordeste 9 Sudoeste 0 976.5 -0.6 94
2019-11-21 04:00:00 9.1 5 Sudoeste 12 Sudoeste 0 977 -0.5 94
2019-11-21 03:00:00 9 5 Sudoeste 13 Sudoeste 0 977 -0.7 95
2019-11-21 02:00:00 8.5 0 Calma 8 Sur 0.2 977.1 -0.5 96
2019-11-21 01:00:00 8.2 0 Calma 6 Sudoeste 0 977.5 0.2 96
2019-11-21 00:00:00 7.7 3 Oeste 6 Oeste 0 977.7 0.4 95
2019-11-20 23:00:00 8.2 2 Oeste 4 Noroeste 0 977.6 0.6 95
2019-11-20 22:00:00 9.4 0 Calma 5 Sudoeste 0 977.3 0.9 95
2019-11-20 21:00:00 9.6 4 Sur 7 Sudoeste 0 977.3 1 94
2019-11-20 20:00:00 9.6 2 Nordeste 8 Nordeste 0.2 977 0.6 93
2019-11-20 19:00:00 10.1 2 Nordeste 7 Norte 0 976.4 0.1 93
2019-11-20 18:00:00 10.6 2 Noroeste 8 Noroeste 0 976.3 -0.4 91
2019-11-20 17:00:00 11.1 4 Sudoeste 9 Sur 0.2 976.4 -1 89
2019-11-20 16:00:00 10.5 4 Sudeste 10 Nordeste 0 976.3 -2.1 85
2019-11-20 15:00:00 9.9 3 Este 7 Este 0 976.7 -2.7 89
2019-11-20 14:00:00 9.3 5 Este 13 Este 1.2 977.4 -1.9 87
2019-11-20 13:00:00 9.3 8 Sudeste 19 Sudeste 0 978.4 -1.3 83
2019-11-20 12:00:00 9 6 Sudoeste 17 Sudoeste 0.4 979.4 -0.3 81
2019-11-20 11:00:00 8.7 7 Sudeste 23 Sudeste 0.4 979.3 -0.3 86
2019-11-20 10:00:00 7.8 7 Sudeste 10 Sudeste 1.2 979.7 0.3 93
2019-11-20 09:00:00 7.2 2 Este 6 Sudeste 2.6 979.7 0.3 93
2019-11-20 08:00:00 6.9 2 Nordeste 6 Nordeste 0.2 979.6 -0.4 90
2019-11-20 07:00:00 6.3 3 Norte 13 Este 0 979.4 -1.2 90
2019-11-20 06:00:00 6 3 Este 6 Este 0 979.4 -1.6 93
2019-11-20 05:00:00 4.9 3 Nordeste 5 Norte 0 980 -1.4 93
2019-11-20 04:00:00 5.3 3 Norte 7 Norte 0 980.6 -1.6 92
2019-11-20 03:00:00 5.9 3 Sudeste 8 Sudeste 0 981 -1.5 91
2019-11-20 02:00:00 6.3 3 Sur 5 Sur 0 981.4 -1.7 91
2019-11-20 01:00:00 6.8 0 Calma 6 Sudeste 0 982.2 -1.3 90
2019-11-20 00:00:00 6.7 5 Sudeste 8 Sudeste 0 982.5 -1 91
2019-11-19 23:00:00 6.8 0 Calma 6 Sudeste 0 983.1 -0.5 90
2019-11-19 22:00:00 7.6 2 Nordeste 4 Noroeste 0 983.5 0 87
2019-11-19 21:00:00 8.3 2 Sudeste 6 Sur 0 983.5 0.1 85
2019-11-19 20:00:00 8.7 2 Sur 4 Sur 0 983.6 0.1 82
2019-11-19 19:00:00 9.4 2 Nordeste 5 Nordeste 0 983.5 -0.3 77
2019-11-19 18:00:00 10.6 2 Nordeste 5 Norte 0 983.4 -1 72
2019-11-19 17:00:00 11.6 2 Nordeste 7 Este 0 983.5 -1.8 67
2019-11-19 16:00:00 11.7 2 Este 6 Nordeste 0 983.8 -2.1 64
2019-11-19 15:00:00 11 3 Nordeste 7 Nordeste 0 984.4 -2.3 65
2019-11-19 14:00:00 10.2 3 Noroeste 7 Noroeste 0 985.3 -1.8 69
2019-11-19 13:00:00 9.9 3 Norte 9 Nordeste 0 985.9 -1.1 70
2019-11-19 12:00:00 9.2 3 Nordeste 8 Nordeste 0 986.7 0.1 76
2019-11-19 11:00:00 7.5 3 Norte 8 Nordeste 0 987.1 0.9 82
2019-11-19 10:00:00 6.5 2 Norte 5 Norte 0 987 1 86
2019-11-19 09:00:00 4 0 Calma 6 Norte 0 986.6 0.6 93
2019-11-19 08:00:00 3.7 2 Nordeste 4 Norte 0 986.2 0.4 93
2019-11-19 07:00:00 3.5 2 Nordeste 5 Sudeste 0 986 -0.1 91
2019-11-19 06:00:00 4.1 3 Sur 11 Sudeste 0 986 0.2 90
2019-11-19 05:00:00 4 2 Sur 6 Sudeste 0 985.8 0.1 89
2019-11-19 04:00:00 4.4 3 Sur 9 Sur 0 986.1 -0.1 88
2019-11-19 03:00:00 5.3 3 Noroeste 6 Noroeste 0 985.8 -0.5 86
2019-11-19 02:00:00 5.9 0 Calma 6 Sudoeste 0 985.7 -0.8 85
2019-11-19 01:00:00 6.4 2 Sudoeste 10 Sudoeste 0 986.2 0 80
2019-11-19 00:00:00 7.1 4 Sur 11 Sur 0 986.3 0.6 78
2019-11-18 23:00:00 7.2 4 Sur 13 Sur 0 986.5 1.2 79
2019-11-18 22:00:00 7.7 6 Sudoeste 10 Sudoeste 0 986.2 1.3 77
2019-11-18 21:00:00 8.3 3 Sur 10 Sur 0 985.7 1.4 77
2019-11-18 20:00:00 9.4 0 Calma 6 Noroeste 0 985.3 1.3 71
2019-11-18 19:00:00 10.6 3 Noroeste 10 Noroeste 0 984.9 1 63
2019-11-18 18:00:00 13 4 Oeste 10 Sudoeste 0 984.3 0.3 56
2019-11-18 17:00:00 15 6 Sudoeste 15 Sudoeste 0 984 -0.1 46
2019-11-18 16:00:00 15.4 8 Oeste 15 Sudoeste 0 983.9 -0.7 46
2019-11-18 15:00:00 14.8 4 Noroeste 16 Oeste 0 984 -0.9 48
2019-11-18 14:00:00 13.5 7 Noroeste 17 Sudoeste 0 984.1 -0.6 53
2019-11-18 13:00:00 12.4 9 Oeste 18 Oeste 0 984.6 0.7 59
2019-11-18 12:00:00 11 8 Oeste 20 Sudoeste 0 984.9 1.8 70
2019-11-18 11:00:00 9.6 10 Sudoeste 20 Sudoeste 0 984.7 2.3 74
2019-11-18 10:00:00 7.8 8 Sudoeste 19 Sudoeste 0 983.9 1.7 83
2019-11-18 09:00:00 5.4 8 Sudoeste 16 Oeste 0 983.1 1.7 91
2019-11-18 08:00:00 4.8 9 Sudoeste 15 Sudoeste 0 982.4 1.5 91
2019-11-18 07:00:00 5.4 6 Sudoeste 15 Oeste 0 982.2 1.7 89
2019-11-18 06:00:00 6.2 6 Oeste 18 Oeste 0 981.4 1.3 85
2019-11-18 05:00:00 7 9 Oeste 19 Sudoeste 0 980.9 0.8 81
2019-11-18 04:00:00 7.3 6 Oeste 16 Sudoeste 0 980.5 0.4 81
2019-11-18 03:00:00 7.6 6 Oeste 18 Noroeste 0 980.1 0.2 83
2019-11-18 02:00:00 8.7 7 Oeste 22 Oeste 0 980.1 0.4 81
2019-11-18 01:00:00 9.9 5 Noroeste 22 Noroeste 0 980.1 0.1 82
2019-11-18 00:00:00 11.9 7 Noroeste 24 Noroeste 0 979.9 0 88
2019-11-17 23:00:00 12.4 11 Oeste 30 Sudoeste 0 979.7 -0.3 94
2019-11-17 22:00:00 12.7 12 Oeste 42 Oeste 1.4 980 -0.2 94
2019-11-17 21:00:00 13.1 17 Oeste 38 Sudoeste 0.2 979.9 -1.1 93
2019-11-17 20:00:00 13.2 16 Oeste 35 Oeste 0.2 980 -1.4 93
2019-11-17 19:00:00 12.6 9 Sudoeste 17 Sudoeste 1.2 980.2 -1.9 95
2019-11-17 18:00:00 11.5 3 Sur 7 Sudoeste 2.4 981 -1.9 94
2019-11-17 17:00:00 11.2 3 Sudeste 6 Nordeste 0 981.4 -2.5 93
2019-11-17 16:00:00 10.8 3 Norte 6 Norte 0.2 982.1 -2.2 93
2019-11-17 15:00:00 10.1 0 Calma 6 Sudoeste 0 982.9 -2.2 93
2019-11-17 14:00:00 9.6 3 Oeste 8 Oeste 0 983.9 -1.2 93
2019-11-17 13:00:00 9.2 3 Norte 9 Norte 0.4 984.3 -1 94
2019-11-17 12:00:00 8.7 2 Norte 9 Sudeste 0.2 985.1 -0.1 94
2019-11-17 11:00:00 7.9 6 Sudeste 10 Este 1.4 985.1 -0.2 94
2019-11-17 10:00:00 7.2 5 Sudeste 13 Sudeste 0.2 985.3 -0.1 94
2019-11-17 09:00:00 7 7 Sudeste 14 Sudeste 0.8 985.2 -0.3 94
2019-11-17 08:00:00 6.8 3 Sur 8 Sur 0.4 985.3 -0.1 93
2019-11-17 07:00:00 6.4 4 Sudoeste 12 Sudoeste 0.2 985.4 -0.3 90
2019-11-17 06:00:00 6.4 5 Oeste 12 Oeste 0 985.5 -0.6 84
2019-11-17 05:00:00 6.1 5 Sudoeste 12 Sudoeste 0 985.4 -0.7 78
2019-11-17 04:00:00 6.1 7 Sudoeste 19 Sudoeste 0 985.7 -0.7 76
2019-11-17 03:00:00 5.5 7 Sudoeste 17 Oeste 0 986.1 -0.5 77
2019-11-17 02:00:00 5.3 10 Sudoeste 18 Sudoeste 0 986.1 -0.2 77
2019-11-17 01:00:00 4.9 7 Sudoeste 16 Oeste 0 986.4 0.3 76
2019-11-17 00:00:00 6.3 9 Oeste 19 Sudoeste 0 986.6 0.5 70
2019-11-16 23:00:00 7.2 9 Sudoeste 17 Sudoeste 0 986.3 0.4 64
2019-11-16 22:00:00 7.5 6 Sudoeste 15 Sudoeste 0 986.1 0.8 58
2019-11-16 21:00:00 7.6 9 Sudoeste 13 Sudoeste 0 986.1 1.1 56
2019-11-16 20:00:00 8.9 5 Sudoeste 10 Sudoeste 0 985.9 0.9 51
2019-11-16 19:00:00 10 3 Sudoeste 14 Oeste 0 985.3 0.7 48
2019-11-16 18:00:00 12.4 4 Oeste 15 Oeste 0 985 0.5 37
2019-11-16 17:00:00 13.1 5 Oeste 23 Oeste 0 985 0.3 36
2019-11-16 16:00:00 14 10 Oeste 26 Noroeste 0 984.6 -0.6 33
2019-11-16 15:00:00 13.6 10 Oeste 22 Oeste 0 984.5 -1 37
2019-11-16 14:00:00 12.9 8 Oeste 20 Oeste 0 984.7 -0.5 40
2019-11-16 13:00:00 11.1 6 Oeste 14 Oeste 0 985.2 0.4 48
2019-11-16 12:00:00 9.8 6 Sudoeste 14 Oeste 0 985.5 1.8 52
2019-11-16 11:00:00 8.2 6 Oeste 20 Sudoeste 0 985.2 2.5 60
2019-11-16 10:00:00 5.6 9 Oeste 17 Oeste 0 984.8 3.2 72
2019-11-16 09:00:00 2.8 5 Sudoeste 13 Sudoeste 0 983.7 2.9 83
2019-11-16 08:00:00 1.4 4 Sur 16 Sudoeste 0 982.7 2.4 83
2019-11-16 07:00:00 2.1 6 Oeste 12 Sudoeste 0 981.6 1.7 83
2019-11-16 06:00:00 2.3 7 Sudoeste 13 Sudoeste 0 980.8 1.4 83
2019-11-16 05:00:00 1.8 6 Sudeste 14 Sudoeste 0 980.3 1.3 81
2019-11-16 04:00:00 2.6 8 Sudoeste 15 Sudoeste 0 979.9 1 78
2019-11-16 03:00:00 2.9 6 Oeste 16 Oeste 0 979.4 0.8 75
2019-11-16 02:00:00 3.1 7 Sudoeste 12 Oeste 0 979 0.7 72
2019-11-16 01:00:00 3.2 4 Sur 10 Sudoeste 0 978.9 1 69
2019-11-16 00:00:00 3.6 5 Sudoeste 12 Sudoeste 0 978.6 1.4 68
2019-11-15 23:00:00 4.1 4 Oeste 10 Oeste 0 978.3 1.6 66
2019-11-15 22:00:00 5 3 Oeste 9 Oeste 0 977.9 1.5 63
2019-11-15 21:00:00 6.3 4 Oeste 12 Norte 0 977.2 1.4 58
2019-11-15 20:00:00 8.2 5 Noroeste 19 Noroeste 0 976.7 1.3 48
2019-11-15 19:00:00 9.3 8 Noroeste 20 Noroeste 0 976.4 1.3 44
2019-11-15 18:00:00 10.9 9 Noroeste 34 Noroeste 0 975.8 0.4 39
2019-11-15 17:00:00 13 11 Noroeste 30 Noroeste 0 975.4 -0.2 34
2019-11-15 16:00:00 13.2 12 Noroeste 27 Noroeste 0 975.1 -1.2 37
2019-11-15 15:00:00 12.4 10 Noroeste 30 Noroeste 0 975.4 -1.8 39
2019-11-15 14:00:00 12 13 Noroeste 35 Noroeste 0 975.6 -1.3 41
2019-11-15 13:00:00 11.4 11 Oeste 30 Noroeste 0 976.3 -0.6 45
2019-11-15 12:00:00 10 13 Noroeste 34 Noroeste 0 977.2 0.7 50
2019-11-15 11:00:00 8.9 10 Noroeste 30 Oeste 0 976.9 1.1 60
2019-11-15 10:00:00 7.1 13 Oeste 25 Oeste 0 976.9 1.1 73
2019-11-15 09:00:00 5 9 Oeste 20 Oeste 0 976.5 0.8 83
2019-11-15 08:00:00 4 12 Oeste 23 Oeste 0 975.8 0.3 87
2019-11-15 07:00:00 4.3 12 Oeste 23 Sudoeste 0 975.8 0 88
2019-11-15 06:00:00 4.6 10 Oeste 25 Oeste 0 975.7 -0.2 87
2019-11-15 05:00:00 4.9 10 Oeste 28 Oeste 0 975.5 -0.6 85
2019-11-15 04:00:00 5.5 11 Oeste 28 Oeste 0 975.8 -0.5 84
2019-11-15 03:00:00 5.8 12 Oeste 28 Oeste 0 975.9 -0.2 82
2019-11-15 02:00:00 6 9 Oeste 30 Oeste 0 976.1 0 78
2019-11-15 01:00:00 6.9 12 Oeste 35 Oeste 0 976.3 0.4 75
2019-11-15 00:00:00 7.6 14 Oeste 25 Oeste 0 976.1 0.7 74
2019-11-14 23:00:00 8.4 10 Oeste 39 Oeste 0 976.1 0.8 76
2019-11-14 22:00:00 9 12 Oeste 30 Oeste 0 975.9 0.7 77
2019-11-14 21:00:00 9.5 13 Oeste 42 Sudoeste 0 975.4 0.7 75
2019-11-14 20:00:00 9.6 17 Oeste 46 Oeste 0 975.3 0.6 74
2019-11-14 19:00:00 10.5 15 Oeste 40 Oeste 0 975.2 0 59
2019-11-14 18:00:00 11.1 12 Oeste 42 Oeste 0 974.7 -0.1 59
2019-11-14 17:00:00 12.1 16 Oeste 48 Oeste 0 974.7 -1.2 54
2019-11-14 16:00:00 12.7 16 Oeste 42 Oeste 0 975.2 -1.2 44
2019-11-14 15:00:00 13.4 15 Oeste 41 Oeste 0 974.8 -2.5 46
2019-11-14 14:00:00 12.2 17 Noroeste 42 Noroeste 0 975.9 -1.2 53
2019-11-14 13:00:00 11.7 19 Noroeste 49 Noroeste 0 976.4 -0.5 57
2019-11-14 12:00:00 11.1 10 Oeste 39 Noroeste 0 977.3 0.8 77
2019-11-14 11:00:00 9.8 15 Oeste 39 Noroeste 1.8 977.1 0.8 86
2019-11-14 10:00:00 10.6 14 Oeste 44 Norte 0.4 976.9 0.2 87
2019-11-14 09:00:00 10.7 10 Oeste 36 Oeste 1.4 976.5 -0.9 93
2019-11-14 08:00:00 10.9 17 Oeste 38 Oeste 0 976.3 -2 90
2019-11-14 07:00:00 10.9 19 Oeste 38 Sudoeste 0 976.7 -2.6 87
2019-11-14 06:00:00 10.5 17 Sudoeste 33 Sudoeste 0 977.4 -2.8 83
2019-11-14 05:00:00 10.1 14 Sudoeste 31 Sudoeste 0 978.3 -3.2 84
2019-11-14 04:00:00 10 20 Sudoeste 41 Sudoeste 0 979.3 -2.6 84
2019-11-14 03:00:00 9.4 12 Oeste 28 Oeste 0 980.2 -1.8 83
2019-11-14 02:00:00 9.7 15 Sudoeste 29 Sudoeste 0 981.5 -1 79
2019-11-14 01:00:00 9.9 10 Oeste 27 Sudoeste 0 981.9 -0.2 80
2019-11-14 00:00:00 11 13 Sudoeste 26 Sudoeste 0 982 -0.3 79
2019-11-13 23:00:00 11.7 11 Oeste 25 Sudoeste 0 982.5 0.4 77
2019-11-13 22:00:00 12.8 11 Sudoeste 34 Oeste 0 982.1 -0.1 74
2019-11-13 21:00:00 14.3 14 Oeste 38 Oeste 0 982.3 0.6 69
2019-11-13 20:00:00 15.2 10 Oeste 27 Sudoeste 0 982.1 0.4 66
2019-11-13 19:00:00 16 10 Oeste 28 Oeste 0 982.2 0.8 63
2019-11-13 18:00:00 18 14 Oeste 42 Oeste 0 981.7 0.7 54
2019-11-13 17:00:00 19.9 20 Oeste 42 Sudoeste 0 981.7 0.6 47
2019-11-13 16:00:00 20.9 19 Oeste 36 Sudoeste 0 981.4 -0.5 48
2019-11-13 15:00:00 20.7 14 Oeste 37 Sudoeste 0 981 -1.2 47
2019-11-13 14:00:00 20.3 14 Oeste 33 Oeste 0 981.1 -0.9 50
2019-11-13 13:00:00 19.4 14 Oeste 33 Sudoeste 0 981.9 0.5 54
2019-11-13 12:00:00 18.2 12 Oeste 30 Sudoeste 0 982.2 1.6 63
2019-11-13 11:00:00 15.8 13 Oeste 31 Oeste 0 982 1.8 77
2019-11-13 10:00:00 14.6 14 Oeste 37 Oeste 0 981.4 2.3 90
2019-11-13 09:00:00 13.9 14 Oeste 36 Oeste 0.2 980.6 1.2 90
2019-11-13 08:00:00 13.7 15 Oeste 40 Sudoeste 0 980.2 0.7 90
2019-11-13 07:00:00 13.8 17 Oeste 39 Sudoeste 0 979.1 -1 86
2019-11-13 06:00:00 13.7 18 Sudoeste 36 Sudoeste 0 979.4 -1 85
2019-11-13 05:00:00 13.5 17 Sudoeste 36 Sudoeste 0 979.5 -1.8 85
2019-11-13 04:00:00 13.1 14 Sudoeste 36 Sudoeste 0 980.1 -2 89
2019-11-13 03:00:00 13.4 17 Sudoeste 31 Sudoeste 0 980.4 -1.9 82
2019-11-13 02:00:00 13.1 13 Sudoeste 32 Sudoeste 0 981.3 -2 85
2019-11-13 01:00:00 12.9 12 Oeste 30 Sudoeste 0 982.1 -1 85
2019-11-13 00:00:00 13.4 18 Sudoeste 35 Oeste 0 982.3 -0.6 78
2019-11-12 23:00:00 13.6 12 Oeste 32 Sudoeste 0 983.3 0.1 72
2019-11-12 22:00:00 13.4 12 Oeste 34 Oeste 0 983.1 -0.3 70
2019-11-12 21:00:00 13.5 10 Sudoeste 27 Oeste 0 982.9 -0.4 65
2019-11-12 20:00:00 14 11 Sudoeste 20 Sudoeste 0 983.2 0.1 56
2019-11-12 19:00:00 14.3 8 Oeste 29 Noroeste 0 983.4 -0.3 48
2019-11-12 18:00:00 15.9 9 Oeste -- -- 9.6 983.3 -0.5 43
2019-11-12 17:00:00 17.2 9 Noroeste 31 Oeste 0 983.1 -1.5 37
2019-11-12 16:00:00 17.4 12 Noroeste 34 Noroeste 0 983.7 -1.8 34
2019-11-12 15:00:00 17.5 10 Noroeste 33 Noroeste 0 983.8 -2.3 32
2019-11-12 14:00:00 16.7 11 Noroeste 26 Oeste 0 984.6 -1.8 33
2019-11-12 13:00:00 15.4 10 Noroeste 25 Noroeste 0 985.5 -0.7 39
2019-11-12 12:00:00 14.2 7 Oeste 18 Noroeste 0 986.1 0.3 47
2019-11-12 11:00:00 11.3 8 Oeste 18 Oeste 0 986.4 1.2 69
2019-11-12 10:00:00 9.5 8 Sudoeste 17 Sudoeste 0 986.2 1.7 83
2019-11-12 09:00:00 6.7 4 Sudoeste 10 Oeste 0 985.8 1.2 94
2019-11-12 08:00:00 5.8 5 Sudoeste 9 Sudoeste 0 985.2 -0.2 94
2019-11-12 07:00:00 6.5 5 Sudoeste 13 Oeste 0 984.5 -0.1 94
2019-11-12 06:00:00 6.7 4 Sur 9 Sudoeste 0 984.6 -0.7 93
2019-11-12 05:00:00 7.4 3 Sudoeste 12 Sudoeste 0 985.4 -0.6 92
2019-11-12 04:00:00 7.9 5 Sur 13 Sur 0 984.6 -1.2 91
2019-11-12 03:00:00 8.2 4 Sur 12 Oeste 0 985.3 -0.2 91
2019-11-12 02:00:00 9 6 Oeste 14 Oeste 0 986 0.7 91
2019-11-12 01:00:00 9.6 4 Sudoeste 12 Oeste 0 985.8 0.6 90
2019-11-12 00:00:00 10.3 6 Sudoeste 12 Oeste 0 985.5 0.6 85
2019-11-11 23:00:00 11.4 4 Oeste 10 Noroeste 0 985.3 0.9 84
2019-11-11 22:00:00 12.7 3 Oeste 15 Noroeste 0 985.2 0.9 73
2019-11-11 21:00:00 13.6 2 Oeste 11 Sudeste 0 984.9 0.9 82
2019-11-11 20:00:00 15.1 3 Norte 13 Noroeste 0 984.4 0.2 76
2019-11-11 19:00:00 15.3 6 Oeste 12 Oeste 0 984.3 0.2 82
2019-11-11 18:00:00 16.8 5 Oeste 16 Oeste 0 984 0.1 75
2019-11-11 17:00:00 17.1 7 Oeste 21 Noroeste 0 984.2 -0.3 74
2019-11-11 16:00:00 16.3 8 Oeste 27 Noroeste 0 984.1 -2 76
2019-11-11 15:00:00 15.6 12 Oeste 26 Oeste 0 983.9 -2.6 77
2019-11-11 14:00:00 14.7 10 Oeste 25 Sudoeste 0 984.5 -2.8 80
2019-11-11 13:00:00 13.6 7 Oeste 17 Oeste 0 986.1 -0.9 82
2019-11-11 12:00:00 12.9 6 Sudoeste 17 Oeste 0 986.5 -0.6 84
2019-11-11 11:00:00 12 6 Oeste 16 Oeste 0 987.3 0.3 86
2019-11-11 10:00:00 11.4 5 Oeste 15 Oeste 0 987 0.1 91
2019-11-11 09:00:00 10.7 7 Oeste 15 Oeste 0 987.1 -0.1 93
2019-11-11 08:00:00 10.6 5 Oeste 14 Oeste 0 987 -0.4 92
2019-11-11 07:00:00 10.4 5 Oeste 20 Oeste 0 986.9 -0.9 92
2019-11-11 06:00:00 10.4 7 Oeste 15 Sudoeste 0 987.2 -0.1 91
2019-11-11 05:00:00 10.3 8 Oeste 17 Oeste 0 987.4 -0.9 90
2019-11-11 04:00:00 10.2 7 Sudoeste 18 Oeste 0 987.8 -0.5 90
2019-11-11 03:00:00 10.1 7 Oeste 19 Sudoeste 0 987.3 -1.4 89
2019-11-11 02:00:00 10.5 8 Oeste 26 Noroeste 0 988.3 -0.2 84
2019-11-11 01:00:00 11.1 6 Oeste 22 Noroeste 0 988.3 -0.1 74
2019-11-11 00:00:00 11.3 7 Oeste 22 Oeste 0 988.7 0.3 68